sensor_id;sensor_type;location;lat;lon;timestamp;P1;P2;P0
36897;PMS5003;22827;53.108;-6.738;2023-09-08T00:00:03;21;21;
36897;PMS5003;22827;53.108;-6.738;2023-09-08T00:02:31;32;32;
36897;PMS5003;22827;53.108;-6.738;2023-09-08T00:04:58;39;37;
36897;PMS5003;22827;53.108;-6.738;2023-09-08T00:07:25;31;29;
36897;PMS5003;22827;53.108;-6.738;2023-09-08T00:09:53;33;29;
36897;PMS5003;22827;53.108;-6.738;2023-09-08T00:12:20;33;32;
36897;PMS5003;22827;53.108;-6.738;2023-09-08T00:14:47;36;30;
36897;PMS5003;22827;53.108;-6.738;2023-09-08T00:17:14;35;33;
36897;PMS5003;22827;53.108;-6.738;2023-09-08T00:19:42;26;23;
36897;PMS5003;22827;53.108;-6.738;2023-09-08T00:22:08;37;36;
36897;PMS5003;22827;53.108;-6.738;2023-09-08T00:24:36;17;16;
36897;PMS5003;22827;53.108;-6.738;2023-09-08T00:27:03;19;18;
36897;PMS5003;22827;53.108;-6.738;2023-09-08T00:29:30;25;24;
36897;PMS5003;22827;53.108;-6.738;2023-09-08T00:31:57;36;35;
36897;PMS5003;22827;53.108;-6.738;2023-09-08T00:34:24;16;14;
36897;PMS5003;22827;53.108;-6.738;2023-09-08T00:36:51;19;17;
36897;PMS5003;22827;53.108;-6.738;2023-09-08T00:39:19;31;31;
36897;PMS5003;22827;53.108;-6.738;2023-09-08T00:41:46;19;17;
36897;PMS5003;22827;53.108;-6.738;2023-09-08T00:44:14;25;24;
36897;PMS5003;22827;53.108;-6.738;2023-09-08T00:46:41;26;26;
36897;PMS5003;22827;53.108;-6.738;2023-09-08T00:49:08;17;13;
36897;PMS5003;22827;53.108;-6.738;2023-09-08T00:51:36;18;17;
36897;PMS5003;22827;53.108;-6.738;2023-09-08T00:54:04;30;28;
36897;PMS5003;22827;53.108;-6.738;2023-09-08T00:56:31;12;12;
36897;PMS5003;22827;53.108;-6.738;2023-09-08T00:59:00;17;14;
36897;PMS5003;22827;53.108;-6.738;2023-09-08T01:01:27;17;14;
36897;PMS5003;22827;53.108;-6.738;2023-09-08T01:03:54;10;10;
36897;PMS5003;22827;53.108;-6.738;2023-09-08T01:06:21;9;9;
36897;PMS5003;22827;53.108;-6.738;2023-09-08T01:08:48;11;11;
36897;PMS5003;22827;53.108;-6.738;2023-09-08T01:11:17;12;12;
36897;PMS5003;22827;53.108;-6.738;2023-09-08T01:11:19;11;11;
36897;PMS5003;22827;53.108;-6.738;2023-09-08T01:13:48;18;17;
36897;PMS5003;22827;53.108;-6.738;2023-09-08T01:16:15;12;12;
36897;PMS5003;22827;53.108;-6.738;2023-09-08T01:18:42;16;15;
36897;PMS5003;22827;53.108;-6.738;2023-09-08T01:21:15;15;14;
36897;PMS5003;22827;53.108;-6.738;2023-09-08T01:24:06;15;14;
36897;PMS5003;22827;53.108;-6.738;2023-09-08T01:26:46;12;12;
36897;PMS5003;22827;53.108;-6.738;2023-09-08T01:29:14;10;10;
36897;PMS5003;22827;53.108;-6.738;2023-09-08T01:31:43;15;13;
36897;PMS5003;22827;53.108;-6.738;2023-09-08T01:34:11;10;9;
36897;PMS5003;22827;53.108;-6.738;2023-09-08T01:36:40;13;13;
36897;PMS5003;22827;53.108;-6.738;2023-09-08T01:39:07;11;11;
36897;PMS5003;22827;53.108;-6.738;2023-09-08T01:41:33;14;12;
36897;PMS5003;22827;53.108;-6.738;2023-09-08T01:44:00;14;12;
36897;PMS5003;22827;53.108;-6.738;2023-09-08T01:46:28;11;10;
36897;PMS5003;22827;53.108;-6.738;2023-09-08T01:48:55;12;12;
36897;PMS5003;22827;53.108;-6.738;2023-09-08T01:51:22;9;9;
36897;PMS5003;22827;53.108;-6.738;2023-09-08T01:53:49;10;10;
36897;PMS5003;22827;53.108;-6.738;2023-09-08T01:56:16;13;13;
36897;PMS5003;22827;53.108;-6.738;2023-09-08T01:58:42;9;9;
36897;PMS5003;22827;53.108;-6.738;2023-09-08T02:01:09;13;13;
36897;PMS5003;22827;53.108;-6.738;2023-09-08T02:03:36;13;13;
36897;PMS5003;22827;53.108;-6.738;2023-09-08T02:06:03;13;12;
36897;PMS5003;22827;53.108;-6.738;2023-09-08T02:08:30;13;12;
36897;PMS5003;22827;53.108;-6.738;2023-09-08T02:10:56;14;14;
36897;PMS5003;22827;53.108;-6.738;2023-09-08T02:13:23;12;12;
36897;PMS5003;22827;53.108;-6.738;2023-09-08T02:15:50;14;13;
36897;PMS5003;22827;53.108;-6.738;2023-09-08T02:18:18;15;14;
36897;PMS5003;22827;53.108;-6.738;2023-09-08T02:20:45;19;17;
36897;PMS5003;22827;53.108;-6.738;2023-09-08T02:23:12;16;14;
36897;PMS5003;22827;53.108;-6.738;2023-09-08T02:25:39;18;16;
36897;PMS5003;22827;53.108;-6.738;2023-09-08T02:28:06;22;18;
36897;PMS5003;22827;53.108;-6.738;2023-09-08T02:30:33;18;15;
36897;PMS5003;22827;53.108;-6.738;2023-09-08T02:33:00;17;17;
36897;PMS5003;22827;53.108;-6.738;2023-09-08T02:35:28;18;16;
36897;PMS5003;22827;53.108;-6.738;2023-09-08T02:37:55;20;19;
36897;PMS5003;22827;53.108;-6.738;2023-09-08T02:40:22;17;17;
36897;PMS5003;22827;53.108;-6.738;2023-09-08T02:42:49;21;19;
36897;PMS5003;22827;53.108;-6.738;2023-09-08T02:45:16;23;22;
36897;PMS5003;22827;53.108;-6.738;2023-09-08T02:47:43;20;20;
36897;PMS5003;22827;53.108;-6.738;2023-09-08T02:50:11;16;14;
36897;PMS5003;22827;53.108;-6.738;2023-09-08T02:52:37;21;19;
36897;PMS5003;22827;53.108;-6.738;2023-09-08T02:55:05;19;18;
36897;PMS5003;22827;53.108;-6.738;2023-09-08T02:57:32;13;13;
36897;PMS5003;22827;53.108;-6.738;2023-09-08T03:00:00;16;16;
36897;PMS5003;22827;53.108;-6.738;2023-09-08T03:02:27;21;16;
36897;PMS5003;22827;53.108;-6.738;2023-09-08T03:04:54;23;23;
36897;PMS5003;22827;53.108;-6.738;2023-09-08T03:07:22;19;18;
36897;PMS5003;22827;53.108;-6.738;2023-09-08T03:09:49;22;21;
36897;PMS5003;22827;53.108;-6.738;2023-09-08T03:12:16;19;17;
36897;PMS5003;22827;53.108;-6.738;2023-09-08T03:14:43;16;15;
36897;PMS5003;22827;53.108;-6.738;2023-09-08T03:17:10;17;17;
36897;PMS5003;22827;53.108;-6.738;2023-09-08T03:19:37;16;16;
36897;PMS5003;22827;53.108;-6.738;2023-09-08T03:22:05;18;17;
36897;PMS5003;22827;53.108;-6.738;2023-09-08T03:24:32;13;13;
36897;PMS5003;22827;53.108;-6.738;2023-09-08T03:26:59;15;14;
36897;PMS5003;22827;53.108;-6.738;2023-09-08T03:29:26;12;12;
36897;PMS5003;22827;53.108;-6.738;2023-09-08T03:31:53;15;13;
36897;PMS5003;22827;53.108;-6.738;2023-09-08T03:34:20;12;11;
36897;PMS5003;22827;53.108;-6.738;2023-09-08T03:36:48;13;13;
36897;PMS5003;22827;53.108;-6.738;2023-09-08T03:39:16;11;11;
36897;PMS5003;22827;53.108;-6.738;2023-09-08T03:41:43;16;14;
36897;PMS5003;22827;53.108;-6.738;2023-09-08T03:44:10;16;15;
36897;PMS5003;22827;53.108;-6.738;2023-09-08T03:46:37;15;14;
36897;PMS5003;22827;53.108;-6.738;2023-09-08T03:49:05;13;13;
36897;PMS5003;22827;53.108;-6.738;2023-09-08T03:51:32;12;11;
36897;PMS5003;22827;53.108;-6.738;2023-09-08T03:53:58;15;13;
36897;PMS5003;22827;53.108;-6.738;2023-09-08T03:56:26;11;11;
36897;PMS5003;22827;53.108;-6.738;2023-09-08T03:58:53;12;11;
36897;PMS5003;22827;53.108;-6.738;2023-09-08T04:01:20;13;12;
36897;PMS5003;22827;53.108;-6.738;2023-09-08T04:03:47;12;11;
36897;PMS5003;22827;53.108;-6.738;2023-09-08T04:06:14;14;12;
36897;PMS5003;22827;53.108;-6.738;2023-09-08T04:08:40;9;9;
36897;PMS5003;22827;53.108;-6.738;2023-09-08T04:11:07;10;10;
36897;PMS5003;22827;53.108;-6.738;2023-09-08T04:13:34;11;11;
36897;PMS5003;22827;53.108;-6.738;2023-09-08T04:16:01;10;9;
36897;PMS5003;22827;53.108;-6.738;2023-09-08T04:18:28;13;12;
36897;PMS5003;22827;53.108;-6.738;2023-09-08T04:20:55;11;10;
36897;PMS5003;22827;53.108;-6.738;2023-09-08T04:23:22;12;10;
36897;PMS5003;22827;53.108;-6.738;2023-09-08T04:25:49;10;10;
36897;PMS5003;22827;53.108;-6.738;2023-09-08T04:28:16;8;7;
36897;PMS5003;22827;53.108;-6.738;2023-09-08T04:30:43;9;9;
36897;PMS5003;22827;53.108;-6.738;2023-09-08T04:33:09;10;10;
36897;PMS5003;22827;53.108;-6.738;2023-09-08T04:35:36;11;10;
36897;PMS5003;22827;53.108;-6.738;2023-09-08T04:38:03;13;12;
36897;PMS5003;22827;53.108;-6.738;2023-09-08T04:40:30;18;17;
36897;PMS5003;22827;53.108;-6.738;2023-09-08T04:42:57;15;15;
36897;PMS5003;22827;53.108;-6.738;2023-09-08T04:45:24;17;17;
36897;PMS5003;22827;53.108;-6.738;2023-09-08T04:47:51;11;9;
36897;PMS5003;22827;53.108;-6.738;2023-09-08T04:50:18;12;11;
36897;PMS5003;22827;53.108;-6.738;2023-09-08T04:52:45;9;9;
36897;PMS5003;22827;53.108;-6.738;2023-09-08T04:55:11;14;9;
36897;PMS5003;22827;53.108;-6.738;2023-09-08T04:57:39;10;10;
36897;PMS5003;22827;53.108;-6.738;2023-09-08T05:00:06;13;12;
36897;PMS5003;22827;53.108;-6.738;2023-09-08T05:02:34;15;14;
36897;PMS5003;22827;53.108;-6.738;2023-09-08T05:05:01;17;15;
36897;PMS5003;22827;53.108;-6.738;2023-09-08T05:07:28;15;13;
36897;PMS5003;22827;53.108;-6.738;2023-09-08T05:09:55;15;12;
36897;PMS5003;22827;53.108;-6.738;2023-09-08T05:12:22;16;12;
36897;PMS5003;22827;53.108;-6.738;2023-09-08T05:14:49;11;11;
36897;PMS5003;22827;53.108;-6.738;2023-09-08T05:17:17;12;12;
36897;PMS5003;22827;53.108;-6.738;2023-09-08T05:19:44;14;12;
36897;PMS5003;22827;53.108;-6.738;2023-09-08T05:22:10;15;14;
36897;PMS5003;22827;53.108;-6.738;2023-09-08T05:24:37;13;11;
36897;PMS5003;22827;53.108;-6.738;2023-09-08T05:27:04;10;10;
36897;PMS5003;22827;53.108;-6.738;2023-09-08T05:29:31;13;10;
36897;PMS5003;22827;53.108;-6.738;2023-09-08T05:31:58;10;10;
36897;PMS5003;22827;53.108;-6.738;2023-09-08T05:34:24;10;10;
36897;PMS5003;22827;53.108;-6.738;2023-09-08T05:36:52;16;12;
36897;PMS5003;22827;53.108;-6.738;2023-09-08T05:39:19;14;11;
36897;PMS5003;22827;53.108;-6.738;2023-09-08T05:41:46;12;11;
36897;PMS5003;22827;53.108;-6.738;2023-09-08T05:44:13;11;9;
36897;PMS5003;22827;53.108;-6.738;2023-09-08T05:46:40;13;12;
36897;PMS5003;22827;53.108;-6.738;2023-09-08T05:49:08;14;14;
36897;PMS5003;22827;53.108;-6.738;2023-09-08T05:51:35;19;18;
36897;PMS5003;22827;53.108;-6.738;2023-09-08T05:54:02;16;13;
36897;PMS5003;22827;53.108;-6.738;2023-09-08T05:56:30;15;13;
36897;PMS5003;22827;53.108;-6.738;2023-09-08T05:58:57;13;10;
36897;PMS5003;22827;53.108;-6.738;2023-09-08T06:01:24;11;11;
36897;PMS5003;22827;53.108;-6.738;2023-09-08T06:03:52;12;12;
36897;PMS5003;22827;53.108;-6.738;2023-09-08T06:06:19;13;12;
36897;PMS5003;22827;53.108;-6.738;2023-09-08T06:08:46;16;14;
36897;PMS5003;22827;53.108;-6.738;2023-09-08T06:11:13;16;14;
36897;PMS5003;22827;53.108;-6.738;2023-09-08T06:13:41;15;14;
36897;PMS5003;22827;53.108;-6.738;2023-09-08T06:16:08;17;15;
36897;PMS5003;22827;53.108;-6.738;2023-09-08T06:18:35;13;11;
36897;PMS5003;22827;53.108;-6.738;2023-09-08T06:21:02;10;10;
36897;PMS5003;22827;53.108;-6.738;2023-09-08T06:23:29;14;12;
36897;PMS5003;22827;53.108;-6.738;2023-09-08T06:25:56;15;14;
36897;PMS5003;22827;53.108;-6.738;2023-09-08T06:28:23;11;11;
36897;PMS5003;22827;53.108;-6.738;2023-09-08T06:30:50;13;12;
36897;PMS5003;22827;53.108;-6.738;2023-09-08T06:33:17;14;12;
36897;PMS5003;22827;53.108;-6.738;2023-09-08T06:35:45;12;11;
36897;PMS5003;22827;53.108;-6.738;2023-09-08T06:38:12;12;12;
36897;PMS5003;22827;53.108;-6.738;2023-09-08T06:40:40;11;10;
36897;PMS5003;22827;53.108;-6.738;2023-09-08T06:43:07;17;16;
36897;PMS5003;22827;53.108;-6.738;2023-09-08T06:45:34;15;13;
36897;PMS5003;22827;53.108;-6.738;2023-09-08T06:48:04;16;14;
36897;PMS5003;22827;53.108;-6.738;2023-09-08T06:50:31;12;12;
36897;PMS5003;22827;53.108;-6.738;2023-09-08T06:52:59;13;12;
36897;PMS5003;22827;53.108;-6.738;2023-09-08T06:55:26;13;12;
36897;PMS5003;22827;53.108;-6.738;2023-09-08T06:57:53;13;12;
36897;PMS5003;22827;53.108;-6.738;2023-09-08T07:00:21;13;11;
36897;PMS5003;22827;53.108;-6.738;2023-09-08T07:02:47;11;10;
36897;PMS5003;22827;53.108;-6.738;2023-09-08T07:05:14;10;10;
36897;PMS5003;22827;53.108;-6.738;2023-09-08T07:07:42;10;10;
36897;PMS5003;22827;53.108;-6.738;2023-09-08T07:10:09;12;12;
36897;PMS5003;22827;53.108;-6.738;2023-09-08T07:12:37;16;15;
36897;PMS5003;22827;53.108;-6.738;2023-09-08T07:15:04;14;11;
36897;PMS5003;22827;53.108;-6.738;2023-09-08T07:17:32;13;10;
36897;PMS5003;22827;53.108;-6.738;2023-09-08T07:19:58;15;11;
36897;PMS5003;22827;53.108;-6.738;2023-09-08T07:22:25;14;13;
36897;PMS5003;22827;53.108;-6.738;2023-09-08T07:24:53;18;13;
36897;PMS5003;22827;53.108;-6.738;2023-09-08T07:27:20;14;14;
36897;PMS5003;22827;53.108;-6.738;2023-09-08T07:29:47;15;13;
36897;PMS5003;22827;53.108;-6.738;2023-09-08T07:32:14;13;11;
36897;PMS5003;22827;53.108;-6.738;2023-09-08T07:34:42;15;15;
36897;PMS5003;22827;53.108;-6.738;2023-09-08T07:37:10;14;11;
36897;PMS5003;22827;53.108;-6.738;2023-09-08T07:39:37;12;11;
36897;PMS5003;22827;53.108;-6.738;2023-09-08T07:42:04;13;12;
36897;PMS5003;22827;53.108;-6.738;2023-09-08T07:44:32;16;13;
36897;PMS5003;22827;53.108;-6.738;2023-09-08T07:46:59;17;13;
36897;PMS5003;22827;53.108;-6.738;2023-09-08T07:49:27;14;12;
36897;PMS5003;22827;53.108;-6.738;2023-09-08T07:51:54;13;11;
36897;PMS5003;22827;53.108;-6.738;2023-09-08T07:54:21;14;12;
36897;PMS5003;22827;53.108;-6.738;2023-09-08T07:56:47;14;13;
36897;PMS5003;22827;53.108;-6.738;2023-09-08T07:59:15;13;10;
36897;PMS5003;22827;53.108;-6.738;2023-09-08T08:01:41;17;17;
36897;PMS5003;22827;53.108;-6.738;2023-09-08T08:04:19;12;11;
36897;PMS5003;22827;53.108;-6.738;2023-09-08T08:06:46;14;13;
36897;PMS5003;22827;53.108;-6.738;2023-09-08T08:09:14;17;15;
36897;PMS5003;22827;53.108;-6.738;2023-09-08T08:11:41;18;17;
36897;PMS5003;22827;53.108;-6.738;2023-09-08T08:14:09;17;15;
36897;PMS5003;22827;53.108;-6.738;2023-09-08T08:16:36;23;21;
36897;PMS5003;22827;53.108;-6.738;2023-09-08T08:19:03;15;15;
36897;PMS5003;22827;53.108;-6.738;2023-09-08T08:21:31;18;15;
36897;PMS5003;22827;53.108;-6.738;2023-09-08T08:23:58;20;15;
36897;PMS5003;22827;53.108;-6.738;2023-09-08T08:26:25;21;19;
36897;PMS5003;22827;53.108;-6.738;2023-09-08T08:28:52;15;15;
36897;PMS5003;22827;53.108;-6.738;2023-09-08T08:31:19;19;17;
36897;PMS5003;22827;53.108;-6.738;2023-09-08T08:33:46;16;15;
36897;PMS5003;22827;53.108;-6.738;2023-09-08T08:36:14;20;18;
36897;PMS5003;22827;53.108;-6.738;2023-09-08T08:38:42;21;18;
36897;PMS5003;22827;53.108;-6.738;2023-09-08T08:41:08;21;19;
36897;PMS5003;22827;53.108;-6.738;2023-09-08T08:43:35;16;15;
36897;PMS5003;22827;53.108;-6.738;2023-09-08T08:46:03;24;18;
36897;PMS5003;22827;53.108;-6.738;2023-09-08T08:48:31;21;19;
36897;PMS5003;22827;53.108;-6.738;2023-09-08T08:50:59;23;19;
36897;PMS5003;22827;53.108;-6.738;2023-09-08T08:53:28;20;18;
36897;PMS5003;22827;53.108;-6.738;2023-09-08T08:55:57;18;18;
36897;PMS5003;22827;53.108;-6.738;2023-09-08T08:58:26;22;19;
36897;PMS5003;22827;53.108;-6.738;2023-09-08T09:00:54;19;18;
36897;PMS5003;22827;53.108;-6.738;2023-09-08T09:03:23;19;18;
36897;PMS5003;22827;53.108;-6.738;2023-09-08T09:05:52;18;16;
36897;PMS5003;22827;53.108;-6.738;2023-09-08T09:08:19;20;19;
36897;PMS5003;22827;53.108;-6.738;2023-09-08T09:10:49;22;22;
36897;PMS5003;22827;53.108;-6.738;2023-09-08T09:13:17;19;18;
36897;PMS5003;22827;53.108;-6.738;2023-09-08T09:15:44;22;21;
36897;PMS5003;22827;53.108;-6.738;2023-09-08T09:18:11;27;25;
36897;PMS5003;22827;53.108;-6.738;2023-09-08T09:20:38;17;16;
36897;PMS5003;22827;53.108;-6.738;2023-09-08T09:23:05;18;17;
36897;PMS5003;22827;53.108;-6.738;2023-09-08T09:25:32;20;18;
36897;PMS5003;22827;53.108;-6.738;2023-09-08T09:27:59;17;15;
36897;PMS5003;22827;53.108;-6.738;2023-09-08T09:30:44;17;14;
36897;PMS5003;22827;53.108;-6.738;2023-09-08T09:33:14;19;19;
36897;PMS5003;22827;53.108;-6.738;2023-09-08T09:35:42;18;17;
36897;PMS5003;22827;53.108;-6.738;2023-09-08T09:38:10;23;20;
36897;PMS5003;22827;53.108;-6.738;2023-09-08T09:40:38;19;17;
36897;PMS5003;22827;53.108;-6.738;2023-09-08T09:43:07;19;18;
36897;PMS5003;22827;53.108;-6.738;2023-09-08T09:45:34;22;21;
36897;PMS5003;22827;53.108;-6.738;2023-09-08T09:48:03;24;21;
36897;PMS5003;22827;53.108;-6.738;2023-09-08T09:50:32;21;18;
36897;PMS5003;22827;53.108;-6.738;2023-09-08T09:53:07;19;18;
36897;PMS5003;22827;53.108;-6.738;2023-09-08T09:55:36;18;18;
36897;PMS5003;22827;53.108;-6.738;2023-09-08T09:58:03;18;17;
36897;PMS5003;22827;53.108;-6.738;2023-09-08T10:00:31;21;18;
36897;PMS5003;22827;53.108;-6.738;2023-09-08T10:02:59;21;20;
36897;PMS5003;22827;53.108;-6.738;2023-09-08T10:05:27;19;19;
36897;PMS5003;22827;53.108;-6.738;2023-09-08T10:07:54;20;20;
36897;PMS5003;22827;53.108;-6.738;2023-09-08T10:10:21;23;22;
36897;PMS5003;22827;53.108;-6.738;2023-09-08T10:12:51;23;20;
36897;PMS5003;22827;53.108;-6.738;2023-09-08T10:15:20;23;23;
36897;PMS5003;22827;53.108;-6.738;2023-09-08T10:17:51;21;20;
36897;PMS5003;22827;53.108;-6.738;2023-09-08T10:20:20;19;19;
36897;PMS5003;22827;53.108;-6.738;2023-09-08T10:22:52;20;18;
36897;PMS5003;22827;53.108;-6.738;2023-09-08T10:25:21;21;16;
36897;PMS5003;22827;53.108;-6.738;2023-09-08T10:27:51;18;17;
36897;PMS5003;22827;53.108;-6.738;2023-09-08T10:30:21;20;18;
36897;PMS5003;22827;53.108;-6.738;2023-09-08T10:32:49;19;19;
36897;PMS5003;22827;53.108;-6.738;2023-09-08T10:35:17;18;18;
36897;PMS5003;22827;53.108;-6.738;2023-09-08T10:37:45;17;17;
36897;PMS5003;22827;53.108;-6.738;2023-09-08T10:40:27;19;19;
36897;PMS5003;22827;53.108;-6.738;2023-09-08T10:43:12;19;19;
36897;PMS5003;22827;53.108;-6.738;2023-09-08T10:45:39;21;21;
36897;PMS5003;22827;53.108;-6.738;2023-09-08T10:48:07;21;21;
36897;PMS5003;22827;53.108;-6.738;2023-09-08T10:50:35;18;18;
36897;PMS5003;22827;53.108;-6.738;2023-09-08T10:53:07;19;19;
36897;PMS5003;22827;53.108;-6.738;2023-09-08T10:55:40;22;18;
36897;PMS5003;22827;53.108;-6.738;2023-09-08T10:58:10;18;16;
36897;PMS5003;22827;53.108;-6.738;2023-09-08T11:00:45;15;15;
36897;PMS5003;22827;53.108;-6.738;2023-09-08T11:03:14;19;16;
36897;PMS5003;22827;53.108;-6.738;2023-09-08T11:05:53;23;19;
36897;PMS5003;22827;53.108;-6.738;2023-09-08T11:08:20;22;17;
36897;PMS5003;22827;53.108;-6.738;2023-09-08T11:10:48;18;17;
36897;PMS5003;22827;53.108;-6.738;2023-09-08T11:13:15;18;16;
36897;PMS5003;22827;53.108;-6.738;2023-09-08T11:15:42;20;19;
36897;PMS5003;22827;53.108;-6.738;2023-09-08T11:18:09;18;17;
36897;PMS5003;22827;53.108;-6.738;2023-09-08T11:20:36;19;18;
36897;PMS5003;22827;53.108;-6.738;2023-09-08T11:23:04;17;15;
36897;PMS5003;22827;53.108;-6.738;2023-09-08T11:25:32;17;14;
36897;PMS5003;22827;53.108;-6.738;2023-09-08T11:27:59;21;17;
36897;PMS5003;22827;53.108;-6.738;2023-09-08T11:30:27;18;15;
36897;PMS5003;22827;53.108;-6.738;2023-09-08T11:32:54;25;21;
36897;PMS5003;22827;53.108;-6.738;2023-09-08T11:35:21;19;17;
36897;PMS5003;22827;53.108;-6.738;2023-09-08T11:37:53;21;21;
36897;PMS5003;22827;53.108;-6.738;2023-09-08T11:40:26;18;14;
36897;PMS5003;22827;53.108;-6.738;2023-09-08T11:42:54;13;11;
36897;PMS5003;22827;53.108;-6.738;2023-09-08T11:45:21;21;19;
36897;PMS5003;22827;53.108;-6.738;2023-09-08T11:47:50;18;14;
36897;PMS5003;22827;53.108;-6.738;2023-09-08T11:50:19;19;16;
36897;PMS5003;22827;53.108;-6.738;2023-09-08T11:52:46;19;15;
36897;PMS5003;22827;53.108;-6.738;2023-09-08T11:55:15;20;17;
36897;PMS5003;22827;53.108;-6.738;2023-09-08T11:57:45;18;15;
36897;PMS5003;22827;53.108;-6.738;2023-09-08T12:00:15;22;17;
36897;PMS5003;22827;53.108;-6.738;2023-09-08T12:02:45;19;17;
36897;PMS5003;22827;53.108;-6.738;2023-09-08T12:05:12;18;16;
36897;PMS5003;22827;53.108;-6.738;2023-09-08T12:07:39;20;17;
36897;PMS5003;22827;53.108;-6.738;2023-09-08T12:10:08;16;16;
36897;PMS5003;22827;53.108;-6.738;2023-09-08T12:12:41;19;17;
36897;PMS5003;22827;53.108;-6.738;2023-09-08T12:15:09;29;24;
36897;PMS5003;22827;53.108;-6.738;2023-09-08T12:17:46;16;15;
36897;PMS5003;22827;53.108;-6.738;2023-09-08T12:20:14;15;13;
36897;PMS5003;22827;53.108;-6.738;2023-09-08T12:22:47;18;16;
36897;PMS5003;22827;53.108;-6.738;2023-09-08T12:25:15;17;15;
36897;PMS5003;22827;53.108;-6.738;2023-09-08T12:27:44;21;17;
36897;PMS5003;22827;53.108;-6.738;2023-09-08T12:30:16;15;13;
36897;PMS5003;22827;53.108;-6.738;2023-09-08T12:32:45;12;11;
36897;PMS5003;22827;53.108;-6.738;2023-09-08T12:35:13;12;11;
36897;PMS5003;22827;53.108;-6.738;2023-09-08T12:37:47;13;10;
36897;PMS5003;22827;53.108;-6.738;2023-09-08T12:40:19;20;15;
36897;PMS5003;22827;53.108;-6.738;2023-09-08T12:42:46;15;14;
36897;PMS5003;22827;53.108;-6.738;2023-09-08T12:45:13;18;14;
36897;PMS5003;22827;53.108;-6.738;2023-09-08T12:47:40;14;12;
36897;PMS5003;22827;53.108;-6.738;2023-09-08T12:50:09;15;15;
36897;PMS5003;22827;53.108;-6.738;2023-09-08T12:52:36;16;14;
36897;PMS5003;22827;53.108;-6.738;2023-09-08T12:55:03;16;15;
36897;PMS5003;22827;53.108;-6.738;2023-09-08T12:57:31;15;14;
36897;PMS5003;22827;53.108;-6.738;2023-09-08T12:59:58;19;16;
36897;PMS5003;22827;53.108;-6.738;2023-09-08T13:02:25;15;11;
36897;PMS5003;22827;53.108;-6.738;2023-09-08T13:04:53;16;13;
36897;PMS5003;22827;53.108;-6.738;2023-09-08T13:07:20;17;12;
36897;PMS5003;22827;53.108;-6.738;2023-09-08T13:09:48;15;12;
36897;PMS5003;22827;53.108;-6.738;2023-09-08T13:12:15;17;15;
36897;PMS5003;22827;53.108;-6.738;2023-09-08T13:14:42;15;13;
36897;PMS5003;22827;53.108;-6.738;2023-09-08T13:17:10;21;18;
36897;PMS5003;22827;53.108;-6.738;2023-09-08T13:19:38;19;16;
36897;PMS5003;22827;53.108;-6.738;2023-09-08T13:22:06;11;10;
36897;PMS5003;22827;53.108;-6.738;2023-09-08T13:24:33;11;11;
36897;PMS5003;22827;53.108;-6.738;2023-09-08T13:27:01;16;11;
36897;PMS5003;22827;53.108;-6.738;2023-09-08T13:29:28;15;11;
36897;PMS5003;22827;53.108;-6.738;2023-09-08T13:31:55;14;12;
36897;PMS5003;22827;53.108;-6.738;2023-09-08T13:34:23;16;13;
36897;PMS5003;22827;53.108;-6.738;2023-09-08T13:36:50;17;14;
36897;PMS5003;22827;53.108;-6.738;2023-09-08T13:39:17;18;15;
36897;PMS5003;22827;53.108;-6.738;2023-09-08T13:41:45;14;11;
36897;PMS5003;22827;53.108;-6.738;2023-09-08T13:44:15;15;14;
36897;PMS5003;22827;53.108;-6.738;2023-09-08T13:46:43;15;15;
36897;PMS5003;22827;53.108;-6.738;2023-09-08T13:49:10;19;15;
36897;PMS5003;22827;53.108;-6.738;2023-09-08T13:51:37;15;13;
36897;PMS5003;22827;53.108;-6.738;2023-09-08T13:54:04;13;13;
36897;PMS5003;22827;53.108;-6.738;2023-09-08T13:56:31;15;12;
36897;PMS5003;22827;53.108;-6.738;2023-09-08T13:58:59;20;18;
36897;PMS5003;22827;53.108;-6.738;2023-09-08T14:01:26;17;15;
36897;PMS5003;22827;53.108;-6.738;2023-09-08T14:03:53;27;21;
36897;PMS5003;22827;53.108;-6.738;2023-09-08T14:06:20;20;17;
36897;PMS5003;22827;53.108;-6.738;2023-09-08T14:08:47;25;23;
36897;PMS5003;22827;53.108;-6.738;2023-09-08T14:11:15;21;17;
36897;PMS5003;22827;53.108;-6.738;2023-09-08T14:13:42;17;15;
36897;PMS5003;22827;53.108;-6.738;2023-09-08T14:16:09;31;22;
36897;PMS5003;22827;53.108;-6.738;2023-09-08T14:18:38;18;15;
36897;PMS5003;22827;53.108;-6.738;2023-09-08T14:21:04;19;17;
36897;PMS5003;22827;53.108;-6.738;2023-09-08T14:23:32;13;11;
36897;PMS5003;22827;53.108;-6.738;2023-09-08T14:26:00;15;12;
36897;PMS5003;22827;53.108;-6.738;2023-09-08T14:28:27;20;12;
36897;PMS5003;22827;53.108;-6.738;2023-09-08T14:30:54;17;14;
36897;PMS5003;22827;53.108;-6.738;2023-09-08T14:33:21;16;13;
36897;PMS5003;22827;53.108;-6.738;2023-09-08T14:35:48;15;13;
36897;PMS5003;22827;53.108;-6.738;2023-09-08T14:38:16;12;11;
36897;PMS5003;22827;53.108;-6.738;2023-09-08T14:40:43;14;14;
36897;PMS5003;22827;53.108;-6.738;2023-09-08T14:43:11;18;16;
36897;PMS5003;22827;53.108;-6.738;2023-09-08T14:45:38;17;14;
36897;PMS5003;22827;53.108;-6.738;2023-09-08T14:48:05;14;12;
36897;PMS5003;22827;53.108;-6.738;2023-09-08T14:50:32;14;13;
36897;PMS5003;22827;53.108;-6.738;2023-09-08T14:52:59;14;13;
36897;PMS5003;22827;53.108;-6.738;2023-09-08T14:55:26;13;10;
36897;PMS5003;22827;53.108;-6.738;2023-09-08T14:57:54;16;11;
36897;PMS5003;22827;53.108;-6.738;2023-09-08T15:00:21;14;12;
36897;PMS5003;22827;53.108;-6.738;2023-09-08T15:02:49;18;12;
36897;PMS5003;22827;53.108;-6.738;2023-09-08T15:05:16;19;17;
36897;PMS5003;22827;53.108;-6.738;2023-09-08T15:07:44;16;15;
36897;PMS5003;22827;53.108;-6.738;2023-09-08T15:10:11;19;15;
36897;PMS5003;22827;53.108;-6.738;2023-09-08T15:12:38;13;12;
36897;PMS5003;22827;53.108;-6.738;2023-09-08T15:15:05;21;18;
36897;PMS5003;22827;53.108;-6.738;2023-09-08T15:17:33;17;14;
36897;PMS5003;22827;53.108;-6.738;2023-09-08T15:20:01;21;18;
36897;PMS5003;22827;53.108;-6.738;2023-09-08T15:22:28;18;14;
36897;PMS5003;22827;53.108;-6.738;2023-09-08T15:24:56;20;17;
36897;PMS5003;22827;53.108;-6.738;2023-09-08T15:27:23;15;15;
36897;PMS5003;22827;53.108;-6.738;2023-09-08T15:29:51;15;13;
36897;PMS5003;22827;53.108;-6.738;2023-09-08T15:32:19;15;14;
36897;PMS5003;22827;53.108;-6.738;2023-09-08T15:34:48;17;15;
36897;PMS5003;22827;53.108;-6.738;2023-09-08T15:37:15;18;14;
36897;PMS5003;22827;53.108;-6.738;2023-09-08T15:39:42;15;14;
36897;PMS5003;22827;53.108;-6.738;2023-09-08T15:42:12;15;13;
36897;PMS5003;22827;53.108;-6.738;2023-09-08T15:44:39;12;12;
36897;PMS5003;22827;53.108;-6.738;2023-09-08T15:47:06;14;13;
36897;PMS5003;22827;53.108;-6.738;2023-09-08T15:49:33;15;14;
36897;PMS5003;22827;53.108;-6.738;2023-09-08T15:52:01;14;13;
36897;PMS5003;22827;53.108;-6.738;2023-09-08T15:54:28;14;12;
36897;PMS5003;22827;53.108;-6.738;2023-09-08T15:56:56;17;14;
36897;PMS5003;22827;53.108;-6.738;2023-09-08T15:59:23;13;13;
36897;PMS5003;22827;53.108;-6.738;2023-09-08T16:01:50;13;12;